sensor_id;sensor_type;location;lat;lon;timestamp;P1;durP1;ratioP1;P2;durP2;ratioP2
72929;SDS011;61073;54.260;20.816;2022-08-19T00:01:51;5.60;;;5.03;;
72929;SDS011;61073;54.260;20.816;2022-08-19T00:04:23;5.82;;;4.82;;
72929;SDS011;61073;54.260;20.816;2022-08-19T00:06:55;5.97;;;4.95;;
72929;SDS011;61073;54.260;20.816;2022-08-19T00:09:22;6.07;;;4.40;;
72929;SDS011;61073;54.260;20.816;2022-08-19T00:11:51;5.05;;;4.60;;
72929;SDS011;61073;54.260;20.816;2022-08-19T00:14:18;6.13;;;5.47;;
72929;SDS011;61073;54.260;20.816;2022-08-19T00:16:47;6.97;;;4.78;;
72929;SDS011;61073;54.260;20.816;2022-08-19T00:19:16;4.57;;;4.18;;
72929;SDS011;61073;54.260;20.816;2022-08-19T00:21:43;5.07;;;4.63;;
72929;SDS011;61073;54.260;20.816;2022-08-19T00:24:10;6.55;;;5.10;;
72929;SDS011;61073;54.260;20.816;2022-08-19T00:26:39;7.55;;;5.00;;
72929;SDS011;61073;54.260;20.816;2022-08-19T00:29:08;5.43;;;4.47;;
72929;SDS011;61073;54.260;20.816;2022-08-19T00:31:37;5.75;;;4.43;;
72929;SDS011;61073;54.260;20.816;2022-08-19T00:34:04;5.75;;;4.57;;
72929;SDS011;61073;54.260;20.816;2022-08-19T00:36:30;5.78;;;4.53;;
72929;SDS011;61073;54.260;20.816;2022-08-19T00:38:58;5.88;;;5.28;;
72929;SDS011;61073;54.260;20.816;2022-08-19T00:41:26;5.47;;;4.50;;
72929;SDS011;61073;54.260;20.816;2022-08-19T00:43:57;5.93;;;4.95;;
72929;SDS011;61073;54.260;20.816;2022-08-19T00:46:31;5.28;;;4.68;;
72929;SDS011;61073;54.260;20.816;2022-08-19T00:48:59;4.85;;;4.35;;
72929;SDS011;61073;54.260;20.816;2022-08-19T00:51:28;9.57;;;5.28;;
72929;SDS011;61073;54.260;20.816;2022-08-19T00:53:58;6.50;;;4.60;;
72929;SDS011;61073;54.260;20.816;2022-08-19T00:56:27;5.30;;;4.80;;
72929;SDS011;61073;54.260;20.816;2022-08-19T00:58:55;5.60;;;4.75;;
72929;SDS011;61073;54.260;20.816;2022-08-19T01:01:24;6.57;;;5.20;;
72929;SDS011;61073;54.260;20.816;2022-08-19T01:03:51;6.50;;;4.88;;
72929;SDS011;61073;54.260;20.816;2022-08-19T01:06:17;5.20;;;4.70;;
72929;SDS011;61073;54.260;20.816;2022-08-19T01:08:44;6.20;;;5.18;;
72929;SDS011;61073;54.260;20.816;2022-08-19T01:11:12;6.90;;;4.90;;
72929;SDS011;61073;54.260;20.816;2022-08-19T01:13:39;5.15;;;4.65;;
72929;SDS011;61073;54.260;20.816;2022-08-19T01:16:07;5.10;;;4.55;;
72929;SDS011;61073;54.260;20.816;2022-08-19T01:18:36;5.95;;;4.72;;
72929;SDS011;61073;54.260;20.816;2022-08-19T01:21:18;5.30;;;4.50;;
72929;SDS011;61073;54.260;20.816;2022-08-19T01:23:46;6.95;;;5.30;;
72929;SDS011;61073;54.260;20.816;2022-08-19T01:26:15;5.35;;;4.50;;
72929;SDS011;61073;54.260;20.816;2022-08-19T01:28:48;9.90;;;4.85;;
72929;SDS011;61073;54.260;20.816;2022-08-19T01:31:18;5.32;;;4.82;;
72929;SDS011;61073;54.260;20.816;2022-08-19T01:33:48;7.63;;;5.00;;
72929;SDS011;61073;54.260;20.816;2022-08-19T01:36:19;7.28;;;5.05;;
72929;SDS011;61073;54.260;20.816;2022-08-19T01:38:54;7.28;;;5.22;;
72929;SDS011;61073;54.260;20.816;2022-08-19T01:41:21;6.30;;;4.95;;
72929;SDS011;61073;54.260;20.816;2022-08-19T01:43:49;6.15;;;5.00;;
72929;SDS011;61073;54.260;20.816;2022-08-19T01:46:17;6.38;;;5.20;;
72929;SDS011;61073;54.260;20.816;2022-08-19T01:48:48;6.30;;;4.82;;
72929;SDS011;61073;54.260;20.816;2022-08-19T01:51:14;5.32;;;4.63;;
72929;SDS011;61073;54.260;20.816;2022-08-19T01:53:41;5.60;;;5.07;;
72929;SDS011;61073;54.260;20.816;2022-08-19T01:56:08;5.57;;;5.07;;
72929;SDS011;61073;54.260;20.816;2022-08-19T01:58:36;5.00;;;4.57;;
72929;SDS011;61073;54.260;20.816;2022-08-19T02:01:07;5.47;;;4.13;;
72929;SDS011;61073;54.260;20.816;2022-08-19T02:03:35;5.40;;;4.70;;
72929;SDS011;61073;54.260;20.816;2022-08-19T02:06:02;5.88;;;4.90;;
72929;SDS011;61073;54.260;20.816;2022-08-19T02:08:29;5.93;;;5.18;;
72929;SDS011;61073;54.260;20.816;2022-08-19T02:10:57;5.85;;;4.47;;
72929;SDS011;61073;54.260;20.816;2022-08-19T02:13:25;5.43;;;4.93;;
72929;SDS011;61073;54.260;20.816;2022-08-19T02:15:53;5.80;;;4.68;;
72929;SDS011;61073;54.260;20.816;2022-08-19T02:18:19;5.32;;;4.82;;
72929;SDS011;61073;54.260;20.816;2022-08-19T02:20:46;5.40;;;4.90;;
72929;SDS011;61073;54.260;20.816;2022-08-19T02:23:13;5.88;;;5.38;;
72929;SDS011;61073;54.260;20.816;2022-08-19T02:25:41;6.45;;;4.82;;
72929;SDS011;61073;54.260;20.816;2022-08-19T02:28:12;5.65;;;5.15;;
72929;SDS011;61073;54.260;20.816;2022-08-19T02:30:42;6.57;;;4.93;;
72929;SDS011;61073;54.260;20.816;2022-08-19T02:33:08;5.65;;;4.95;;
72929;SDS011;61073;54.260;20.816;2022-08-19T02:35:35;6.78;;;4.78;;
72929;SDS011;61073;54.260;20.816;2022-08-19T02:38:01;7.50;;;5.20;;
72929;SDS011;61073;54.260;20.816;2022-08-19T02:40:50;5.72;;;5.13;;
72929;SDS011;61073;54.260;20.816;2022-08-19T02:43:18;5.40;;;4.90;;
72929;SDS011;61073;54.260;20.816;2022-08-19T02:45:49;7.07;;;5.28;;
72929;SDS011;61073;54.260;20.816;2022-08-19T02:48:19;6.53;;;5.28;;
72929;SDS011;61073;54.260;20.816;2022-08-19T02:50:48;5.95;;;5.30;;
72929;SDS011;61073;54.260;20.816;2022-08-19T02:53:22;5.85;;;5.03;;
72929;SDS011;61073;54.260;20.816;2022-08-19T02:55:50;6.30;;;4.88;;
72929;SDS011;61073;54.260;20.816;2022-08-19T02:58:18;5.45;;;4.88;;
72929;SDS011;61073;54.260;20.816;2022-08-19T03:00:47;5.30;;;4.80;;
72929;SDS011;61073;54.260;20.816;2022-08-19T03:03:17;5.38;;;4.88;;
72929;SDS011;61073;54.260;20.816;2022-08-19T03:05:44;6.53;;;5.00;;
72929;SDS011;61073;54.260;20.816;2022-08-19T03:08:12;6.47;;;4.55;;
72929;SDS011;61073;54.260;20.816;2022-08-19T03:10:41;6.85;;;4.28;;
72929;SDS011;61073;54.260;20.816;2022-08-19T03:13:11;5.70;;;4.95;;
72929;SDS011;61073;54.260;20.816;2022-08-19T03:15:40;5.28;;;4.85;;
72929;SDS011;61073;54.260;20.816;2022-08-19T03:18:08;6.18;;;4.55;;
72929;SDS011;61073;54.260;20.816;2022-08-19T03:20:39;5.18;;;4.70;;
72929;SDS011;61073;54.260;20.816;2022-08-19T03:23:10;5.28;;;4.78;;
72929;SDS011;61073;54.260;20.816;2022-08-19T03:25:40;6.47;;;5.00;;
72929;SDS011;61073;54.260;20.816;2022-08-19T03:28:10;5.68;;;5.05;;
72929;SDS011;61073;54.260;20.816;2022-08-19T03:30:38;7.05;;;5.00;;
72929;SDS011;61073;54.260;20.816;2022-08-19T03:33:09;5.80;;;5.18;;
72929;SDS011;61073;54.260;20.816;2022-08-19T03:35:37;5.47;;;4.82;;
72929;SDS011;61073;54.260;20.816;2022-08-19T03:38:05;4.60;;;4.20;;
72929;SDS011;61073;54.260;20.816;2022-08-19T03:40:32;5.20;;;4.70;;
72929;SDS011;61073;54.260;20.816;2022-08-19T03:43:03;6.03;;;5.35;;
72929;SDS011;61073;54.260;20.816;2022-08-19T03:45:29;5.50;;;5.00;;
72929;SDS011;61073;54.260;20.816;2022-08-19T03:47:56;6.18;;;5.30;;
72929;SDS011;61073;54.260;20.816;2022-08-19T03:50:24;5.72;;;4.75;;
72929;SDS011;61073;54.260;20.816;2022-08-19T03:52:51;5.88;;;5.22;;
72929;SDS011;61073;54.260;20.816;2022-08-19T03:55:18;7.15;;;5.18;;
72929;SDS011;61073;54.260;20.816;2022-08-19T03:57:45;5.03;;;4.53;;
72929;SDS011;61073;54.260;20.816;2022-08-19T04:00:13;5.25;;;4.72;;
72929;SDS011;61073;54.260;20.816;2022-08-19T04:02:41;5.97;;;5.13;;
72929;SDS011;61073;54.260;20.816;2022-08-19T04:05:08;5.32;;;4.82;;
72929;SDS011;61073;54.260;20.816;2022-08-19T04:07:34;6.13;;;4.90;;
72929;SDS011;61073;54.260;20.816;2022-08-19T04:10:01;7.63;;;5.00;;
72929;SDS011;61073;54.260;20.816;2022-08-19T04:12:29;5.28;;;4.78;;
72929;SDS011;61073;54.260;20.816;2022-08-19T04:14:55;4.75;;;4.20;;
72929;SDS011;61073;54.260;20.816;2022-08-19T04:19:49;5.63;;;4.93;;
72929;SDS011;61073;54.260;20.816;2022-08-19T04:22:15;4.53;;;4.13;;
72929;SDS011;61073;54.260;20.816;2022-08-19T04:24:42;6.20;;;4.70;;
72929;SDS011;61073;54.260;20.816;2022-08-19T04:27:08;4.90;;;4.40;;
72929;SDS011;61073;54.260;20.816;2022-08-19T04:29:35;5.78;;;5.22;;
72929;SDS011;61073;54.260;20.816;2022-08-19T04:32:05;5.25;;;4.80;;
72929;SDS011;61073;54.260;20.816;2022-08-19T04:34:32;4.93;;;4.40;;
72929;SDS011;61073;54.260;20.816;2022-08-19T04:36:58;5.80;;;5.18;;
72929;SDS011;61073;54.260;20.816;2022-08-19T04:39:26;5.82;;;4.93;;
72929;SDS011;61073;54.260;20.816;2022-08-19T04:42:14;7.72;;;5.03;;
72929;SDS011;61073;54.260;20.816;2022-08-19T04:45:03;5.28;;;4.78;;
72929;SDS011;61073;54.260;20.816;2022-08-19T04:47:38;7.60;;;5.00;;
72929;SDS011;61073;54.260;20.816;2022-08-19T04:50:07;5.53;;;5.03;;
72929;SDS011;61073;54.260;20.816;2022-08-19T04:52:37;4.90;;;4.50;;
72929;SDS011;61073;54.260;20.816;2022-08-19T04:55:11;5.72;;;5.18;;
72929;SDS011;61073;54.260;20.816;2022-08-19T04:57:38;5.55;;;5.05;;
72929;SDS011;61073;54.260;20.816;2022-08-19T05:00:07;6.05;;;4.97;;
72929;SDS011;61073;54.260;20.816;2022-08-19T05:02:34;5.25;;;4.72;;
72929;SDS011;61073;54.260;20.816;2022-08-19T05:05:02;5.28;;;4.88;;
72929;SDS011;61073;54.260;20.816;2022-08-19T05:07:29;5.30;;;4.80;;
72929;SDS011;61073;54.260;20.816;2022-08-19T05:09:56;6.13;;;5.05;;
72929;SDS011;61073;54.260;20.816;2022-08-19T05:12:24;5.20;;;4.70;;
72929;SDS011;61073;54.260;20.816;2022-08-19T05:14:52;5.40;;;4.90;;
72929;SDS011;61073;54.260;20.816;2022-08-19T05:17:19;8.45;;;5.20;;
72929;SDS011;61073;54.260;20.816;2022-08-19T05:19:52;6.10;;;5.22;;
72929;SDS011;61073;54.260;20.816;2022-08-19T05:22:36;5.57;;;4.45;;
72929;SDS011;61073;54.260;20.816;2022-08-19T05:25:04;5.00;;;4.53;;
72929;SDS011;61073;54.260;20.816;2022-08-19T05:27:42;5.63;;;5.13;;
72929;SDS011;61073;54.260;20.816;2022-08-19T05:30:10;5.65;;;5.10;;
72929;SDS011;61073;54.260;20.816;2022-08-19T05:32:37;5.47;;;4.93;;
72929;SDS011;61073;54.260;20.816;2022-08-19T05:35:05;6.97;;;5.75;;
72929;SDS011;61073;54.260;20.816;2022-08-19T05:37:32;6.20;;;5.30;;
72929;SDS011;61073;54.260;20.816;2022-08-19T05:39:59;5.45;;;4.95;;
72929;SDS011;61073;54.260;20.816;2022-08-19T05:42:26;6.65;;;5.43;;
72929;SDS011;61073;54.260;20.816;2022-08-19T05:44:52;5.95;;;5.10;;
72929;SDS011;61073;54.260;20.816;2022-08-19T05:47:19;5.10;;;4.60;;
72929;SDS011;61073;54.260;20.816;2022-08-19T05:49:47;6.68;;;5.05;;
72929;SDS011;61073;54.260;20.816;2022-08-19T05:52:16;5.22;;;4.70;;
72929;SDS011;61073;54.260;20.816;2022-08-19T05:54:43;5.70;;;4.72;;
72929;SDS011;61073;54.260;20.816;2022-08-19T05:57:13;5.45;;;4.95;;
72929;SDS011;61073;54.260;20.816;2022-08-19T05:59:41;5.78;;;5.07;;
72929;SDS011;61073;54.260;20.816;2022-08-19T06:02:09;6.28;;;5.18;;
72929;SDS011;61073;54.260;20.816;2022-08-19T06:04:36;5.88;;;5.20;;
72929;SDS011;61073;54.260;20.816;2022-08-19T06:07:03;5.25;;;4.50;;
72929;SDS011;61073;54.260;20.816;2022-08-19T06:09:30;6.05;;;5.30;;
72929;SDS011;61073;54.260;20.816;2022-08-19T06:11:57;6.93;;;5.22;;
72929;SDS011;61073;54.260;20.816;2022-08-19T06:14:27;5.97;;;5.47;;
72929;SDS011;61073;54.260;20.816;2022-08-19T06:16:56;7.18;;;5.13;;
72929;SDS011;61073;54.260;20.816;2022-08-19T06:19:29;5.53;;;5.03;;
72929;SDS011;61073;54.260;20.816;2022-08-19T06:21:57;5.68;;;5.18;;
72929;SDS011;61073;54.260;20.816;2022-08-19T06:24:25;5.85;;;5.30;;
72929;SDS011;61073;54.260;20.816;2022-08-19T06:26:54;5.43;;;4.85;;
72929;SDS011;61073;54.260;20.816;2022-08-19T06:29:23;5.22;;;4.72;;
72929;SDS011;61073;54.260;20.816;2022-08-19T06:31:54;6.13;;;5.55;;
72929;SDS011;61073;54.260;20.816;2022-08-19T06:34:22;5.75;;;5.25;;
72929;SDS011;61073;54.260;20.816;2022-08-19T06:36:51;5.60;;;5.07;;
72929;SDS011;61073;54.260;20.816;2022-08-19T06:39:26;5.00;;;4.50;;
72929;SDS011;61073;54.260;20.816;2022-08-19T06:44:24;5.70;;;5.10;;
72929;SDS011;61073;54.260;20.816;2022-08-19T06:46:55;6.80;;;5.50;;
72929;SDS011;61073;54.260;20.816;2022-08-19T06:49:22;6.45;;;5.22;;
72929;SDS011;61073;54.260;20.816;2022-08-19T06:51:50;5.65;;;4.97;;
72929;SDS011;61073;54.260;20.816;2022-08-19T06:54:17;5.82;;;5.30;;
72929;SDS011;61073;54.260;20.816;2022-08-19T06:56:45;6.18;;;5.57;;
72929;SDS011;61073;54.260;20.816;2022-08-19T06:59:13;6.43;;;5.22;;
72929;SDS011;61073;54.260;20.816;2022-08-19T07:01:45;5.47;;;4.97;;
72929;SDS011;61073;54.260;20.816;2022-08-19T07:04:18;5.95;;;5.35;;
72929;SDS011;61073;54.260;20.816;2022-08-19T07:06:47;5.88;;;5.28;;
72929;SDS011;61073;54.260;20.816;2022-08-19T07:09:14;6.43;;;5.25;;
72929;SDS011;61073;54.260;20.816;2022-08-19T07:11:45;5.35;;;4.93;;
72929;SDS011;61073;54.260;20.816;2022-08-19T07:14:14;6.05;;;5.28;;
72929;SDS011;61073;54.260;20.816;2022-08-19T07:16:44;5.50;;;4.97;;
72929;SDS011;61073;54.260;20.816;2022-08-19T07:19:12;5.85;;;5.35;;
72929;SDS011;61073;54.260;20.816;2022-08-19T07:21:39;5.65;;;5.05;;
72929;SDS011;61073;54.260;20.816;2022-08-19T07:24:05;6.40;;;5.63;;
72929;SDS011;61073;54.260;20.816;2022-08-19T07:26:33;5.63;;;5.03;;
72929;SDS011;61073;54.260;20.816;2022-08-19T07:29:05;5.65;;;5.07;;
72929;SDS011;61073;54.260;20.816;2022-08-19T07:31:32;6.30;;;5.15;;
72929;SDS011;61073;54.260;20.816;2022-08-19T07:34:03;5.80;;;5.30;;
72929;SDS011;61073;54.260;20.816;2022-08-19T07:36:35;6.00;;;5.40;;
72929;SDS011;61073;54.260;20.816;2022-08-19T07:39:08;6.55;;;5.25;;
72929;SDS011;61073;54.260;20.816;2022-08-19T07:41:37;6.82;;;5.20;;
72929;SDS011;61073;54.260;20.816;2022-08-19T07:44:05;6.00;;;5.35;;
72929;SDS011;61073;54.260;20.816;2022-08-19T07:46:35;6.45;;;5.85;;
72929;SDS011;61073;54.260;20.816;2022-08-19T07:49:04;6.80;;;5.18;;
72929;SDS011;61073;54.260;20.816;2022-08-19T07:51:32;5.88;;;5.28;;
72929;SDS011;61073;54.260;20.816;2022-08-19T07:53:59;5.72;;;4.82;;
72929;SDS011;61073;54.260;20.816;2022-08-19T07:56:27;5.93;;;5.32;;
72929;SDS011;61073;54.260;20.816;2022-08-19T07:58:54;7.28;;;5.68;;
72929;SDS011;61073;54.260;20.816;2022-08-19T08:01:22;6.30;;;5.60;;
72929;SDS011;61073;54.260;20.816;2022-08-19T08:03:52;6.53;;;5.50;;
72929;SDS011;61073;54.260;20.816;2022-08-19T08:06:38;6.47;;;5.18;;
72929;SDS011;61073;54.260;20.816;2022-08-19T08:09:26;6.15;;;5.55;;
72929;SDS011;61073;54.260;20.816;2022-08-19T08:12:00;5.53;;;5.03;;
72929;SDS011;61073;54.260;20.816;2022-08-19T08:14:50;5.57;;;5.05;;
72929;SDS011;61073;54.260;20.816;2022-08-19T08:17:22;6.43;;;5.40;;
72929;SDS011;61073;54.260;20.816;2022-08-19T08:19:50;5.95;;;5.28;;
72929;SDS011;61073;54.260;20.816;2022-08-19T08:22:18;5.50;;;5.00;;
72929;SDS011;61073;54.260;20.816;2022-08-19T08:25:06;6.77;;;5.33;;
72929;SDS011;61073;54.260;20.816;2022-08-19T08:27:35;5.30;;;4.80;;
72929;SDS011;61073;54.260;20.816;2022-08-19T08:30:11;5.90;;;5.40;;
72929;SDS011;61073;54.260;20.816;2022-08-19T08:32:42;5.30;;;4.68;;
72929;SDS011;61073;54.260;20.816;2022-08-19T08:35:12;8.50;;;5.10;;
72929;SDS011;61073;54.260;20.816;2022-08-19T08:37:43;5.47;;;4.97;;
72929;SDS011;61073;54.260;20.816;2022-08-19T08:45:49;5.32;;;4.82;;
72929;SDS011;61073;54.260;20.816;2022-08-19T08:48:23;5.68;;;5.18;;
72929;SDS011;61073;54.260;20.816;2022-08-19T08:50:53;5.57;;;5.05;;
72929;SDS011;61073;54.260;20.816;2022-08-19T08:53:22;5.90;;;5.30;;
72929;SDS011;61073;54.260;20.816;2022-08-19T08:55:50;6.25;;;5.20;;
72929;SDS011;61073;54.260;20.816;2022-08-19T09:00:50;9.32;;;5.68;;
72929;SDS011;61073;54.260;20.816;2022-08-19T09:03:19;6.53;;;5.05;;
72929;SDS011;61073;54.260;20.816;2022-08-19T09:05:55;5.57;;;5.07;;
72929;SDS011;61073;54.260;20.816;2022-08-19T09:14:45;6.05;;;5.45;;
72929;SDS011;61073;54.260;20.816;2022-08-19T09:17:19;5.63;;;5.03;;
72929;SDS011;61073;54.260;20.816;2022-08-19T09:19:56;6.10;;;5.05;;
72929;SDS011;61073;54.260;20.816;2022-08-19T09:22:35;5.97;;;4.32;;
72929;SDS011;61073;54.260;20.816;2022-08-19T09:25:08;6.32;;;5.35;;
72929;SDS011;61073;54.260;20.816;2022-08-19T09:27:35;5.80;;;5.20;;
72929;SDS011;61073;54.260;20.816;2022-08-19T09:30:05;5.50;;;5.00;;
72929;SDS011;61073;54.260;20.816;2022-08-19T09:32:33;6.03;;;5.43;;
72929;SDS011;61073;54.260;20.816;2022-08-19T09:35:00;5.15;;;4.63;;
72929;SDS011;61073;54.260;20.816;2022-08-19T09:37:27;5.55;;;4.90;;
72929;SDS011;61073;54.260;20.816;2022-08-19T09:39:54;5.60;;;5.10;;
72929;SDS011;61073;54.260;20.816;2022-08-19T09:42:21;5.60;;;4.57;;
72929;SDS011;61073;54.260;20.816;2022-08-19T09:44:48;5.28;;;4.70;;
72929;SDS011;61073;54.260;20.816;2022-08-19T09:47:15;5.38;;;4.88;;
72929;SDS011;61073;54.260;20.816;2022-08-19T09:49:43;5.47;;;4.97;;
72929;SDS011;61073;54.260;20.816;2022-08-19T09:52:09;6.00;;;4.85;;
72929;SDS011;61073;54.260;20.816;2022-08-19T09:54:37;5.50;;;5.00;;
72929;SDS011;61073;54.260;20.816;2022-08-19T09:57:04;6.60;;;5.30;;
72929;SDS011;61073;54.260;20.816;2022-08-19T09:59:32;5.75;;;5.18;;
72929;SDS011;61073;54.260;20.816;2022-08-19T10:01:59;6.55;;;5.18;;
72929;SDS011;61073;54.260;20.816;2022-08-19T10:04:25;5.57;;;4.90;;
72929;SDS011;61073;54.260;20.816;2022-08-19T10:07:12;5.53;;;4.97;;
72929;SDS011;61073;54.260;20.816;2022-08-19T10:09:39;5.72;;;4.88;;
72929;SDS011;61073;54.260;20.816;2022-08-19T10:12:07;6.40;;;5.28;;
72929;SDS011;61073;54.260;20.816;2022-08-19T10:14:35;5.90;;;4.53;;
72929;SDS011;61073;54.260;20.816;2022-08-19T10:17:02;5.63;;;5.00;;
72929;SDS011;61073;54.260;20.816;2022-08-19T10:19:29;5.63;;;4.95;;
72929;SDS011;61073;54.260;20.816;2022-08-19T10:22:05;6.65;;;4.63;;
72929;SDS011;61073;54.260;20.816;2022-08-19T10:24:35;7.65;;;5.05;;
72929;SDS011;61073;54.260;20.816;2022-08-19T10:27:02;5.90;;;5.13;;
72929;SDS011;61073;54.260;20.816;2022-08-19T10:29:32;9.85;;;5.15;;
72929;SDS011;61073;54.260;20.816;2022-08-19T10:32:01;6.53;;;4.78;;
72929;SDS011;61073;54.260;20.816;2022-08-19T10:34:30;6.82;;;4.90;;
72929;SDS011;61073;54.260;20.816;2022-08-19T10:36:57;5.70;;;5.05;;
72929;SDS011;61073;54.260;20.816;2022-08-19T10:39:26;5.65;;;4.97;;
72929;SDS011;61073;54.260;20.816;2022-08-19T10:41:57;7.82;;;5.10;;
72929;SDS011;61073;54.260;20.816;2022-08-19T10:44:25;5.05;;;4.55;;
72929;SDS011;61073;54.260;20.816;2022-08-19T10:46:54;6.18;;;4.97;;
72929;SDS011;61073;54.260;20.816;2022-08-19T10:49:21;4.95;;;4.43;;
72929;SDS011;61073;54.260;20.816;2022-08-19T10:51:51;6.60;;;5.20;;
72929;SDS011;61073;54.260;20.816;2022-08-19T10:54:36;5.82;;;5.22;;
72929;SDS011;61073;54.260;20.816;2022-08-19T10:57:21;5.70;;;4.85;;
72929;SDS011;61073;54.260;20.816;2022-08-19T11:00:02;5.30;;;4.80;;
72929;SDS011;61073;54.260;20.816;2022-08-19T11:02:29;5.82;;;4.90;;
72929;SDS011;61073;54.260;20.816;2022-08-19T11:04:58;6.93;;;5.00;;
72929;SDS011;61073;54.260;20.816;2022-08-19T11:07:29;5.38;;;4.78;;
72929;SDS011;61073;54.260;20.816;2022-08-19T11:09:55;5.00;;;4.60;;
72929;SDS011;61073;54.260;20.816;2022-08-19T11:12:22;5.88;;;4.80;;
72929;SDS011;61073;54.260;20.816;2022-08-19T11:14:49;6.10;;;5.47;;
72929;SDS011;61073;54.260;20.816;2022-08-19T11:17:15;5.55;;;4.70;;
72929;SDS011;61073;54.260;20.816;2022-08-19T11:19:42;6.15;;;4.63;;
72929;SDS011;61073;54.260;20.816;2022-08-19T11:22:09;5.85;;;4.72;;
72929;SDS011;61073;54.260;20.816;2022-08-19T11:24:36;6.72;;;4.68;;
72929;SDS011;61073;54.260;20.816;2022-08-19T11:27:04;8.55;;;4.82;;
72929;SDS011;61073;54.260;20.816;2022-08-19T11:29:35;5.60;;;5.10;;
72929;SDS011;61073;54.260;20.816;2022-08-19T11:32:06;4.72;;;4.32;;
72929;SDS011;61073;54.260;20.816;2022-08-19T11:34:38;5.10;;;4.60;;
72929;SDS011;61073;54.260;20.816;2022-08-19T11:37:05;5.20;;;4.25;;
72929;SDS011;61073;54.260;20.816;2022-08-19T11:39:35;5.25;;;4.80;;
72929;SDS011;61073;54.260;20.816;2022-08-19T11:42:03;8.20;;;3.95;;
72929;SDS011;61073;54.260;20.816;2022-08-19T11:44:51;4.70;;;4.30;;
72929;SDS011;61073;54.260;20.816;2022-08-19T11:47:18;5.43;;;4.57;;
72929;SDS011;61073;54.260;20.816;2022-08-19T11:49:46;6.00;;;4.57;;
72929;SDS011;61073;54.260;20.816;2022-08-19T11:52:13;5.07;;;4.13;;
72929;SDS011;61073;54.260;20.816;2022-08-19T11:54:40;5.20;;;4.38;;
72929;SDS011;61073;54.260;20.816;2022-08-19T11:57:06;5.68;;;4.35;;
72929;SDS011;61073;54.260;20.816;2022-08-19T11:59:33;7.65;;;4.53;;
72929;SDS011;61073;54.260;20.816;2022-08-19T12:02:00;4.45;;;4.05;;
72929;SDS011;61073;54.260;20.816;2022-08-19T12:04:27;8.68;;;4.53;;
72929;SDS011;61073;54.260;20.816;2022-08-19T12:06:54;4.85;;;4.43;;
72929;SDS011;61073;54.260;20.816;2022-08-19T12:09:20;6.07;;;4.57;;
72929;SDS011;61073;54.260;20.816;2022-08-19T12:11:48;5.38;;;4.10;;
72929;SDS011;61073;54.260;20.816;2022-08-19T12:14:14;4.88;;;4.03;;
72929;SDS011;61073;54.260;20.816;2022-08-19T12:16:43;4.60;;;4.20;;
72929;SDS011;61073;54.260;20.816;2022-08-19T12:19:12;7.43;;;4.50;;
72929;SDS011;61073;54.260;20.816;2022-08-19T12:21:38;4.60;;;4.20;;
72929;SDS011;61073;54.260;20.816;2022-08-19T12:24:05;4.43;;;4.00;;
72929;SDS011;61073;54.260;20.816;2022-08-19T12:26:32;6.35;;;4.43;;
72929;SDS011;61073;54.260;20.816;2022-08-19T12:29:00;6.07;;;4.00;;
72929;SDS011;61073;54.260;20.816;2022-08-19T12:31:27;4.85;;;4.40;;
72929;SDS011;61073;54.260;20.816;2022-08-19T12:33:54;5.82;;;4.70;;
72929;SDS011;61073;54.260;20.816;2022-08-19T12:36:21;4.90;;;3.95;;
72929;SDS011;61073;54.260;20.816;2022-08-19T12:38:49;4.55;;;4.15;;
72929;SDS011;61073;54.260;20.816;2022-08-19T12:41:16;5.90;;;4.57;;
72929;SDS011;61073;54.260;20.816;2022-08-19T12:43:44;5.45;;;4.57;;
72929;SDS011;61073;54.260;20.816;2022-08-19T12:46:11;7.82;;;4.70;;
72929;SDS011;61073;54.260;20.816;2022-08-19T12:48:38;7.25;;;4.65;;
72929;SDS011;61073;54.260;20.816;2022-08-19T12:51:08;4.65;;;4.20;;
72929;SDS011;61073;54.260;20.816;2022-08-19T12:53:36;4.65;;;4.25;;
72929;SDS011;61073;54.260;20.816;2022-08-19T12:56:04;4.45;;;4.00;;
72929;SDS011;61073;54.260;20.816;2022-08-19T12:58:31;5.75;;;4.15;;
72929;SDS011;61073;54.260;20.816;2022-08-19T13:01:11;4.47;;;4.07;;
72929;SDS011;61073;54.260;20.816;2022-08-19T13:03:38;4.40;;;4.00;;
72929;SDS011;61073;54.260;20.816;2022-08-19T13:06:06;3.80;;;3.50;;
72929;SDS011;61073;54.260;20.816;2022-08-19T13:08:34;4.28;;;3.88;;
72929;SDS011;61073;54.260;20.816;2022-08-19T13:11:08;4.90;;;4.38;;
72929;SDS011;61073;54.260;20.816;2022-08-19T13:13:38;4.82;;;3.92;;
72929;SDS011;61073;54.260;20.816;2022-08-19T13:16:08;6.97;;;4.07;;
72929;SDS011;61073;54.260;20.816;2022-08-19T13:18:37;4.28;;;3.88;;
72929;SDS011;61073;54.260;20.816;2022-08-19T13:21:06;4.55;;;3.70;;
72929;SDS011;61073;54.260;20.816;2022-08-19T13:23:35;4.97;;;4.22;;
72929;SDS011;61073;54.260;20.816;2022-08-19T13:26:03;5.10;;;4.00;;
72929;SDS011;61073;54.260;20.816;2022-08-19T13:28:32;6.53;;;4.32;;
72929;SDS011;61073;54.260;20.816;2022-08-19T13:31:18;4.10;;;3.80;;
72929;SDS011;61073;54.260;20.816;2022-08-19T13:34:06;4.07;;;3.72;;
72929;SDS011;61073;54.260;20.816;2022-08-19T13:36:33;4.90;;;4.40;;
72929;SDS011;61073;54.260;20.816;2022-08-19T13:39:01;4.93;;;4.00;;
72929;SDS011;61073;54.260;20.816;2022-08-19T13:41:28;4.47;;;4.07;;
72929;SDS011;61073;54.260;20.816;2022-08-19T13:43:55;4.75;;;4.35;;
72929;SDS011;61073;54.260;20.816;2022-08-19T13:46:21;3.92;;;3.63;;
72929;SDS011;61073;54.260;20.816;2022-08-19T13:48:48;4.57;;;4.15;;
72929;SDS011;61073;54.260;20.816;2022-08-19T13:51:15;4.15;;;3.75;;
72929;SDS011;61073;54.260;20.816;2022-08-19T13:53:43;5.53;;;3.92;;
72929;SDS011;61073;54.260;20.816;2022-08-19T13:56:13;4.35;;;3.90;;
72929;SDS011;61073;54.260;20.816;2022-08-19T13:58:42;4.75;;;3.85;;
72929;SDS011;61073;54.260;20.816;2022-08-19T14:01:09;3.92;;;3.50;;
72929;SDS011;61073;54.260;20.816;2022-08-19T14:03:37;4.30;;;3.90;;
72929;SDS011;61073;54.260;20.816;2022-08-19T14:06:04;5.25;;;4.38;;
72929;SDS011;61073;54.260;20.816;2022-08-19T14:08:30;4.40;;;4.03;;
72929;SDS011;61073;54.260;20.816;2022-08-19T14:10:58;4.45;;;4.03;;
72929;SDS011;61073;54.260;20.816;2022-08-19T14:13:25;6.50;;;3.88;;
72929;SDS011;61073;54.260;20.816;2022-08-19T14:15:52;5.95;;;4.25;;
72929;SDS011;61073;54.260;20.816;2022-08-19T14:18:19;4.50;;;3.63;;
72929;SDS011;61073;54.260;20.816;2022-08-19T14:20:46;4.18;;;3.75;;
72929;SDS011;61073;54.260;20.816;2022-08-19T14:23:13;5.05;;;3.88;;
72929;SDS011;61073;54.260;20.816;2022-08-19T14:25:40;4.38;;;3.97;;
72929;SDS011;61073;54.260;20.816;2022-08-19T14:28:07;4.57;;;4.18;;
72929;SDS011;61073;54.260;20.816;2022-08-19T14:30:34;4.28;;;3.72;;
72929;SDS011;61073;54.260;20.816;2022-08-19T14:33:04;5.43;;;4.13;;
72929;SDS011;61073;54.260;20.816;2022-08-19T14:35:32;4.47;;;4.07;;
72929;SDS011;61073;54.260;20.816;2022-08-19T14:38:01;5.65;;;3.95;;
72929;SDS011;61073;54.260;20.816;2022-08-19T14:40:29;5.15;;;3.75;;
72929;SDS011;61073;54.260;20.816;2022-08-19T14:42:58;5.30;;;4.38;;
72929;SDS011;61073;54.260;20.816;2022-08-19T14:45:30;5.07;;;4.10;;
72929;SDS011;61073;54.260;20.816;2022-08-19T14:47:59;6.13;;;4.03;;
72929;SDS011;61073;54.260;20.816;2022-08-19T14:50:26;4.28;;;3.75;;
72929;SDS011;61073;54.260;20.816;2022-08-19T14:55:43;4.63;;;4.10;;
72929;SDS011;61073;54.260;20.816;2022-08-19T14:58:10;5.53;;;4.15;;
72929;SDS011;61073;54.260;20.816;2022-08-19T15:00:38;3.92;;;3.63;;
72929;SDS011;61073;54.260;20.816;2022-08-19T15:03:05;4.40;;;4.00;;
72929;SDS011;61073;54.260;20.816;2022-08-19T15:05:32;5.15;;;4.25;;
72929;SDS011;61073;54.260;20.816;2022-08-19T15:08:02;5.32;;;4.00;;